sensor_id;sensor_type;location;lat;lon;timestamp;P1;durP1;ratioP1;P2;durP2;ratioP2
15261;SDS011;7733;51.554;13.590;2023-05-17T00:02:02;2.03;;;1.20;;
15261;SDS011;7733;51.554;13.590;2023-05-17T00:04:28;1.80;;;1.23;;
15261;SDS011;7733;51.554;13.590;2023-05-17T00:06:53;2.37;;;1.23;;
15261;SDS011;7733;51.554;13.590;2023-05-17T00:09:19;1.47;;;1.00;;
15261;SDS011;7733;51.554;13.590;2023-05-17T00:11:45;2.40;;;1.20;;
15261;SDS011;7733;51.554;13.590;2023-05-17T00:14:10;3.03;;;1.00;;
15261;SDS011;7733;51.554;13.590;2023-05-17T00:16:36;1.17;;;0.90;;
15261;SDS011;7733;51.554;13.590;2023-05-17T00:19:02;1.73;;;1.33;;
15261;SDS011;7733;51.554;13.590;2023-05-17T00:21:28;5.47;;;1.40;;
15261;SDS011;7733;51.554;13.590;2023-05-17T00:23:53;2.43;;;1.07;;
15261;SDS011;7733;51.554;13.590;2023-05-17T00:26:19;2.40;;;1.80;;
15261;SDS011;7733;51.554;13.590;2023-05-17T00:28:45;3.87;;;1.50;;
15261;SDS011;7733;51.554;13.590;2023-05-17T00:31:11;3.63;;;1.30;;
15261;SDS011;7733;51.554;13.590;2023-05-17T00:33:36;2.60;;;1.27;;
15261;SDS011;7733;51.554;13.590;2023-05-17T00:36:02;3.33;;;1.10;;
15261;SDS011;7733;51.554;13.590;2023-05-17T00:38:29;5.47;;;1.63;;
15261;SDS011;7733;51.554;13.590;2023-05-17T00:40:55;3.23;;;1.17;;
15261;SDS011;7733;51.554;13.590;2023-05-17T00:43:20;3.43;;;1.30;;
15261;SDS011;7733;51.554;13.590;2023-05-17T00:45:46;2.63;;;1.20;;
15261;SDS011;7733;51.554;13.590;2023-05-17T00:48:14;3.43;;;1.47;;
15261;SDS011;7733;51.554;13.590;2023-05-17T00:50:40;1.70;;;1.20;;
15261;SDS011;7733;51.554;13.590;2023-05-17T00:53:06;1.37;;;1.00;;
15261;SDS011;7733;51.554;13.590;2023-05-17T00:55:33;4.57;;;1.50;;
15261;SDS011;7733;51.554;13.590;2023-05-17T00:57:59;4.37;;;1.50;;
15261;SDS011;7733;51.554;13.590;2023-05-17T01:00:25;3.83;;;1.70;;
15261;SDS011;7733;51.554;13.590;2023-05-17T01:02:52;2.57;;;1.20;;
15261;SDS011;7733;51.554;13.590;2023-05-17T01:05:17;2.20;;;1.40;;
15261;SDS011;7733;51.554;13.590;2023-05-17T01:07:43;5.07;;;1.60;;
15261;SDS011;7733;51.554;13.590;2023-05-17T01:10:09;1.70;;;1.23;;
15261;SDS011;7733;51.554;13.590;2023-05-17T01:15:22;5.40;;;1.40;;
15261;SDS011;7733;51.554;13.590;2023-05-17T01:20:44;3.13;;;1.50;;
15261;SDS011;7733;51.554;13.590;2023-05-17T01:29:05;3.97;;;1.70;;
15261;SDS011;7733;51.554;13.590;2023-05-17T01:31:34;1.43;;;1.33;;
15261;SDS011;7733;51.554;13.590;2023-05-17T01:34:05;5.03;;;1.60;;
15261;SDS011;7733;51.554;13.590;2023-05-17T01:36:32;5.00;;;1.60;;
15261;SDS011;7733;51.554;13.590;2023-05-17T01:38:58;3.10;;;1.50;;
15261;SDS011;7733;51.554;13.590;2023-05-17T01:46:42;2.07;;;1.50;;
15261;SDS011;7733;51.554;13.590;2023-05-17T01:52:01;6.93;;;1.57;;
15261;SDS011;7733;51.554;13.590;2023-05-17T01:54:49;3.20;;;1.40;;
15261;SDS011;7733;51.554;13.590;2023-05-17T01:57:27;3.30;;;1.60;;
15261;SDS011;7733;51.554;13.590;2023-05-17T01:59:59;5.23;;;1.73;;
15261;SDS011;7733;51.554;13.590;2023-05-17T02:02:33;7.07;;;1.97;;
15261;SDS011;7733;51.554;13.590;2023-05-17T02:05:00;3.13;;;1.70;;
15261;SDS011;7733;51.554;13.590;2023-05-17T02:07:25;4.23;;;1.90;;
15261;SDS011;7733;51.554;13.590;2023-05-17T02:09:51;3.90;;;1.90;;
15261;SDS011;7733;51.554;13.590;2023-05-17T02:12:17;3.50;;;1.80;;
15261;SDS011;7733;51.554;13.590;2023-05-17T02:14:43;3.10;;;1.83;;
15261;SDS011;7733;51.554;13.590;2023-05-17T02:17:08;2.13;;;1.80;;
15261;SDS011;7733;51.554;13.590;2023-05-17T02:19:34;3.10;;;1.73;;
15261;SDS011;7733;51.554;13.590;2023-05-17T02:22:00;3.73;;;1.97;;
15261;SDS011;7733;51.554;13.590;2023-05-17T02:24:25;5.50;;;1.90;;
15261;SDS011;7733;51.554;13.590;2023-05-17T02:26:51;5.13;;;1.83;;
15261;SDS011;7733;51.554;13.590;2023-05-17T02:29:17;5.07;;;1.90;;
15261;SDS011;7733;51.554;13.590;2023-05-17T02:31:43;6.00;;;1.87;;
15261;SDS011;7733;51.554;13.590;2023-05-17T02:34:10;3.47;;;2.00;;
15261;SDS011;7733;51.554;13.590;2023-05-17T02:36:35;3.57;;;1.90;;
15261;SDS011;7733;51.554;13.590;2023-05-17T02:39:01;5.90;;;2.33;;
15261;SDS011;7733;51.554;13.590;2023-05-17T02:41:27;3.33;;;1.83;;
15261;SDS011;7733;51.554;13.590;2023-05-17T02:43:53;3.60;;;1.80;;
15261;SDS011;7733;51.554;13.590;2023-05-17T02:46:18;3.23;;;1.70;;
15261;SDS011;7733;51.554;13.590;2023-05-17T02:48:45;3.87;;;2.13;;
15261;SDS011;7733;51.554;13.590;2023-05-17T02:51:11;3.47;;;2.03;;
15261;SDS011;7733;51.554;13.590;2023-05-17T02:53:36;4.00;;;1.93;;
15261;SDS011;7733;51.554;13.590;2023-05-17T02:56:02;5.33;;;2.37;;
15261;SDS011;7733;51.554;13.590;2023-05-17T02:58:28;5.97;;;2.20;;
15261;SDS011;7733;51.554;13.590;2023-05-17T03:00:54;4.17;;;2.10;;
15261;SDS011;7733;51.554;13.590;2023-05-17T03:03:19;4.67;;;2.17;;
15261;SDS011;7733;51.554;13.590;2023-05-17T03:05:45;4.50;;;2.20;;
15261;SDS011;7733;51.554;13.590;2023-05-17T03:08:11;3.70;;;2.00;;
15261;SDS011;7733;51.554;13.590;2023-05-17T03:10:36;3.90;;;2.10;;
15261;SDS011;7733;51.554;13.590;2023-05-17T03:13:02;4.40;;;2.20;;
15261;SDS011;7733;51.554;13.590;2023-05-17T03:15:28;2.60;;;1.57;;
15261;SDS011;7733;51.554;13.590;2023-05-17T03:17:54;4.67;;;2.10;;
15261;SDS011;7733;51.554;13.590;2023-05-17T03:20:23;5.43;;;2.23;;
15261;SDS011;7733;51.554;13.590;2023-05-17T03:22:49;6.23;;;2.57;;
15261;SDS011;7733;51.554;13.590;2023-05-17T03:25:14;5.57;;;2.40;;
15261;SDS011;7733;51.554;13.590;2023-05-17T03:27:40;4.30;;;2.53;;
15261;SDS011;7733;51.554;13.590;2023-05-17T03:30:06;4.47;;;2.60;;
15261;SDS011;7733;51.554;13.590;2023-05-17T03:32:32;8.47;;;2.67;;
15261;SDS011;7733;51.554;13.590;2023-05-17T03:34:58;5.53;;;2.83;;
15261;SDS011;7733;51.554;13.590;2023-05-17T03:37:24;4.93;;;2.40;;
15261;SDS011;7733;51.554;13.590;2023-05-17T03:39:50;7.53;;;2.60;;
15261;SDS011;7733;51.554;13.590;2023-05-17T03:42:15;6.57;;;2.67;;
15261;SDS011;7733;51.554;13.590;2023-05-17T03:44:41;3.13;;;2.30;;
15261;SDS011;7733;51.554;13.590;2023-05-17T03:47:07;9.07;;;2.87;;
15261;SDS011;7733;51.554;13.590;2023-05-17T03:49:33;10.53;;;2.77;;
15261;SDS011;7733;51.554;13.590;2023-05-17T03:51:58;6.50;;;2.30;;
15261;SDS011;7733;51.554;13.590;2023-05-17T03:54:24;6.13;;;2.77;;
15261;SDS011;7733;51.554;13.590;2023-05-17T03:56:50;6.67;;;2.73;;
15261;SDS011;7733;51.554;13.590;2023-05-17T03:59:16;5.17;;;2.60;;
15261;SDS011;7733;51.554;13.590;2023-05-17T04:01:42;5.67;;;2.70;;
15261;SDS011;7733;51.554;13.590;2023-05-17T04:04:09;6.17;;;2.50;;
15261;SDS011;7733;51.554;13.590;2023-05-17T04:06:35;5.23;;;2.60;;
15261;SDS011;7733;51.554;13.590;2023-05-17T04:09:01;6.10;;;2.57;;
15261;SDS011;7733;51.554;13.590;2023-05-17T04:11:27;7.83;;;2.90;;
15261;SDS011;7733;51.554;13.590;2023-05-17T04:13:53;4.47;;;2.50;;
15261;SDS011;7733;51.554;13.590;2023-05-17T04:16:20;4.77;;;2.57;;
15261;SDS011;7733;51.554;13.590;2023-05-17T04:18:46;6.00;;;2.50;;
15261;SDS011;7733;51.554;13.590;2023-05-17T04:21:14;5.37;;;2.90;;
15261;SDS011;7733;51.554;13.590;2023-05-17T04:23:39;9.00;;;2.73;;
15261;SDS011;7733;51.554;13.590;2023-05-17T04:26:05;5.97;;;2.83;;
15261;SDS011;7733;51.554;13.590;2023-05-17T04:28:31;3.63;;;2.53;;
15261;SDS011;7733;51.554;13.590;2023-05-17T04:30:58;4.73;;;2.87;;
15261;SDS011;7733;51.554;13.590;2023-05-17T04:33:24;8.37;;;3.13;;
15261;SDS011;7733;51.554;13.590;2023-05-17T04:35:53;4.20;;;2.87;;
15261;SDS011;7733;51.554;13.590;2023-05-17T04:38:19;6.77;;;2.90;;
15261;SDS011;7733;51.554;13.590;2023-05-17T04:40:45;6.23;;;2.70;;
15261;SDS011;7733;51.554;13.590;2023-05-17T04:43:11;7.03;;;2.80;;
15261;SDS011;7733;51.554;13.590;2023-05-17T04:45:36;5.30;;;3.03;;
15261;SDS011;7733;51.554;13.590;2023-05-17T04:48:03;4.70;;;3.20;;
15261;SDS011;7733;51.554;13.590;2023-05-17T04:50:29;5.93;;;3.17;;
15261;SDS011;7733;51.554;13.590;2023-05-17T04:52:54;4.50;;;2.93;;
15261;SDS011;7733;51.554;13.590;2023-05-17T04:55:20;9.63;;;3.23;;
15261;SDS011;7733;51.554;13.590;2023-05-17T04:57:46;5.53;;;2.90;;
15261;SDS011;7733;51.554;13.590;2023-05-17T05:00:12;6.20;;;3.17;;
15261;SDS011;7733;51.554;13.590;2023-05-17T05:02:39;4.50;;;2.83;;
15261;SDS011;7733;51.554;13.590;2023-05-17T05:05:06;6.10;;;3.13;;
15261;SDS011;7733;51.554;13.590;2023-05-17T05:07:33;8.23;;;3.47;;
15261;SDS011;7733;51.554;13.590;2023-05-17T05:10:00;8.20;;;3.70;;
15261;SDS011;7733;51.554;13.590;2023-05-17T05:12:26;5.80;;;3.30;;
15261;SDS011;7733;51.554;13.590;2023-05-17T05:14:52;9.53;;;4.00;;
15261;SDS011;7733;51.554;13.590;2023-05-17T05:17:18;8.67;;;3.73;;
15261;SDS011;7733;51.554;13.590;2023-05-17T05:19:44;9.00;;;3.97;;
15261;SDS011;7733;51.554;13.590;2023-05-17T05:22:10;7.20;;;3.70;;
15261;SDS011;7733;51.554;13.590;2023-05-17T05:24:35;7.73;;;4.10;;
15261;SDS011;7733;51.554;13.590;2023-05-17T05:27:01;11.03;;;4.10;;
15261;SDS011;7733;51.554;13.590;2023-05-17T05:29:27;8.73;;;4.10;;
15261;SDS011;7733;51.554;13.590;2023-05-17T05:31:53;10.57;;;3.80;;
15261;SDS011;7733;51.554;13.590;2023-05-17T05:34:18;8.43;;;4.13;;
15261;SDS011;7733;51.554;13.590;2023-05-17T05:36:44;7.80;;;4.17;;
15261;SDS011;7733;51.554;13.590;2023-05-17T05:39:11;9.33;;;4.10;;
15261;SDS011;7733;51.554;13.590;2023-05-17T05:41:36;6.77;;;4.13;;
15261;SDS011;7733;51.554;13.590;2023-05-17T05:44:02;6.97;;;4.00;;
15261;SDS011;7733;51.554;13.590;2023-05-17T05:46:28;7.83;;;4.33;;
15261;SDS011;7733;51.554;13.590;2023-05-17T05:48:54;6.80;;;3.93;;
15261;SDS011;7733;51.554;13.590;2023-05-17T05:51:19;8.07;;;4.40;;
15261;SDS011;7733;51.554;13.590;2023-05-17T05:53:45;7.10;;;3.90;;
15261;SDS011;7733;51.554;13.590;2023-05-17T05:56:11;6.77;;;4.10;;
15261;SDS011;7733;51.554;13.590;2023-05-17T05:58:36;11.70;;;4.33;;
15261;SDS011;7733;51.554;13.590;2023-05-17T06:01:02;11.93;;;4.57;;
15261;SDS011;7733;51.554;13.590;2023-05-17T06:03:28;8.20;;;4.40;;
15261;SDS011;7733;51.554;13.590;2023-05-17T06:05:54;10.67;;;4.73;;
15261;SDS011;7733;51.554;13.590;2023-05-17T06:08:20;11.27;;;4.47;;
15261;SDS011;7733;51.554;13.590;2023-05-17T06:10:45;10.00;;;4.50;;
15261;SDS011;7733;51.554;13.590;2023-05-17T06:13:11;8.47;;;4.57;;
15261;SDS011;7733;51.554;13.590;2023-05-17T06:15:39;9.37;;;4.30;;
15261;SDS011;7733;51.554;13.590;2023-05-17T06:18:05;9.37;;;4.63;;
15261;SDS011;7733;51.554;13.590;2023-05-17T06:20:30;7.53;;;3.87;;
15261;SDS011;7733;51.554;13.590;2023-05-17T06:22:56;4.53;;;3.80;;
15261;SDS011;7733;51.554;13.590;2023-05-17T06:25:22;9.37;;;3.90;;
15261;SDS011;7733;51.554;13.590;2023-05-17T06:27:48;9.47;;;4.30;;
15261;SDS011;7733;51.554;13.590;2023-05-17T06:30:14;9.57;;;4.23;;
15261;SDS011;7733;51.554;13.590;2023-05-17T06:32:40;8.30;;;4.13;;
15261;SDS011;7733;51.554;13.590;2023-05-17T06:35:06;7.90;;;4.10;;
15261;SDS011;7733;51.554;13.590;2023-05-17T06:37:33;9.33;;;4.50;;
15261;SDS011;7733;51.554;13.590;2023-05-17T06:40:05;10.43;;;3.63;;
15261;SDS011;7733;51.554;13.590;2023-05-17T06:42:32;11.37;;;4.70;;
15261;SDS011;7733;51.554;13.590;2023-05-17T06:44:58;7.30;;;3.97;;
15261;SDS011;7733;51.554;13.590;2023-05-17T06:47:24;8.63;;;4.30;;
15261;SDS011;7733;51.554;13.590;2023-05-17T06:49:50;9.40;;;3.73;;
15261;SDS011;7733;51.554;13.590;2023-05-17T06:52:16;8.90;;;4.20;;
15261;SDS011;7733;51.554;13.590;2023-05-17T06:54:42;10.23;;;3.97;;
15261;SDS011;7733;51.554;13.590;2023-05-17T06:57:07;7.83;;;3.57;;
15261;SDS011;7733;51.554;13.590;2023-05-17T06:59:34;8.03;;;4.00;;
15261;SDS011;7733;51.554;13.590;2023-05-17T07:02:01;9.20;;;4.17;;
15261;SDS011;7733;51.554;13.590;2023-05-17T07:04:27;10.00;;;3.87;;
15261;SDS011;7733;51.554;13.590;2023-05-17T07:06:52;9.43;;;3.90;;
15261;SDS011;7733;51.554;13.590;2023-05-17T07:09:21;9.90;;;3.20;;
15261;SDS011;7733;51.554;13.590;2023-05-17T07:11:47;8.73;;;3.70;;
15261;SDS011;7733;51.554;13.590;2023-05-17T07:14:13;9.17;;;3.53;;
15261;SDS011;7733;51.554;13.590;2023-05-17T07:16:38;9.23;;;4.00;;
15261;SDS011;7733;51.554;13.590;2023-05-17T07:19:05;9.87;;;4.20;;
15261;SDS011;7733;51.554;13.590;2023-05-17T07:21:31;12.00;;;4.60;;
15261;SDS011;7733;51.554;13.590;2023-05-17T07:23:57;12.27;;;4.03;;
15261;SDS011;7733;51.554;13.590;2023-05-17T07:26:23;10.73;;;4.10;;
15261;SDS011;7733;51.554;13.590;2023-05-17T07:28:49;9.03;;;4.13;;
15261;SDS011;7733;51.554;13.590;2023-05-17T07:31:15;11.13;;;4.17;;
15261;SDS011;7733;51.554;13.590;2023-05-17T07:33:41;9.03;;;4.27;;
15261;SDS011;7733;51.554;13.590;2023-05-17T07:36:08;11.13;;;3.70;;
15261;SDS011;7733;51.554;13.590;2023-05-17T07:38:33;9.27;;;4.17;;
15261;SDS011;7733;51.554;13.590;2023-05-17T07:41:00;11.43;;;4.03;;
15261;SDS011;7733;51.554;13.590;2023-05-17T07:43:27;6.53;;;4.20;;
15261;SDS011;7733;51.554;13.590;2023-05-17T07:45:53;10.27;;;4.60;;
15261;SDS011;7733;51.554;13.590;2023-05-17T07:48:19;8.83;;;4.20;;
15261;SDS011;7733;51.554;13.590;2023-05-17T07:50:45;10.03;;;4.27;;
15261;SDS011;7733;51.554;13.590;2023-05-17T07:53:11;10.50;;;4.03;;
15261;SDS011;7733;51.554;13.590;2023-05-17T07:55:37;7.87;;;4.00;;
15261;SDS011;7733;51.554;13.590;2023-05-17T07:58:02;8.47;;;3.87;;
15261;SDS011;7733;51.554;13.590;2023-05-17T08:00:28;10.63;;;4.10;;
15261;SDS011;7733;51.554;13.590;2023-05-17T08:02:55;9.60;;;4.13;;
15261;SDS011;7733;51.554;13.590;2023-05-17T08:05:21;9.67;;;3.63;;
15261;SDS011;7733;51.554;13.590;2023-05-17T08:07:47;10.50;;;4.10;;
15261;SDS011;7733;51.554;13.590;2023-05-17T08:10:12;12.97;;;3.80;;
15261;SDS011;7733;51.554;13.590;2023-05-17T08:12:39;10.20;;;3.90;;
15261;SDS011;7733;51.554;13.590;2023-05-17T08:15:05;7.27;;;3.63;;
15261;SDS011;7733;51.554;13.590;2023-05-17T08:17:31;11.27;;;4.10;;
15261;SDS011;7733;51.554;13.590;2023-05-17T08:19:57;9.23;;;3.80;;
15261;SDS011;7733;51.554;13.590;2023-05-17T08:22:22;7.50;;;3.60;;
15261;SDS011;7733;51.554;13.590;2023-05-17T08:24:48;9.60;;;3.80;;
15261;SDS011;7733;51.554;13.590;2023-05-17T08:27:15;7.67;;;3.70;;
15261;SDS011;7733;51.554;13.590;2023-05-17T08:29:41;8.07;;;3.50;;
15261;SDS011;7733;51.554;13.590;2023-05-17T08:32:06;8.33;;;3.90;;
15261;SDS011;7733;51.554;13.590;2023-05-17T08:34:32;9.27;;;4.00;;
15261;SDS011;7733;51.554;13.590;2023-05-17T08:36:58;8.73;;;3.50;;
15261;SDS011;7733;51.554;13.590;2023-05-17T08:39:24;12.17;;;3.77;;
15261;SDS011;7733;51.554;13.590;2023-05-17T08:41:49;8.03;;;3.00;;
15261;SDS011;7733;51.554;13.590;2023-05-17T08:44:15;8.33;;;3.10;;
15261;SDS011;7733;51.554;13.590;2023-05-17T08:46:41;10.73;;;2.93;;
15261;SDS011;7733;51.554;13.590;2023-05-17T08:49:08;10.03;;;3.47;;
15261;SDS011;7733;51.554;13.590;2023-05-17T08:51:37;8.00;;;3.20;;
15261;SDS011;7733;51.554;13.590;2023-05-17T08:54:04;6.90;;;3.10;;
15261;SDS011;7733;51.554;13.590;2023-05-17T08:56:30;7.73;;;2.90;;
15261;SDS011;7733;51.554;13.590;2023-05-17T08:58:59;8.00;;;3.10;;
15261;SDS011;7733;51.554;13.590;2023-05-17T09:01:26;9.87;;;3.20;;
15261;SDS011;7733;51.554;13.590;2023-05-17T09:03:54;6.93;;;3.33;;
15261;SDS011;7733;51.554;13.590;2023-05-17T09:06:20;7.30;;;3.20;;
15261;SDS011;7733;51.554;13.590;2023-05-17T09:08:51;6.77;;;2.90;;
15261;SDS011;7733;51.554;13.590;2023-05-17T09:11:23;6.53;;;2.90;;
15261;SDS011;7733;51.554;13.590;2023-05-17T09:13:58;5.53;;;2.90;;
15261;SDS011;7733;51.554;13.590;2023-05-17T09:16:36;8.00;;;3.40;;
15261;SDS011;7733;51.554;13.590;2023-05-17T09:19:03;6.77;;;2.90;;
15261;SDS011;7733;51.554;13.590;2023-05-17T09:21:30;5.03;;;2.57;;
15261;SDS011;7733;51.554;13.590;2023-05-17T09:23:57;7.53;;;2.90;;
15261;SDS011;7733;51.554;13.590;2023-05-17T09:26:25;7.80;;;3.40;;
15261;SDS011;7733;51.554;13.590;2023-05-17T09:29:05;4.67;;;2.63;;
15261;SDS011;7733;51.554;13.590;2023-05-17T09:31:33;6.33;;;2.90;;
15261;SDS011;7733;51.554;13.590;2023-05-17T09:34:00;6.50;;;2.97;;
15261;SDS011;7733;51.554;13.590;2023-05-17T09:36:26;5.00;;;3.00;;
15261;SDS011;7733;51.554;13.590;2023-05-17T09:38:53;8.90;;;2.70;;
15261;SDS011;7733;51.554;13.590;2023-05-17T09:41:25;5.93;;;2.60;;
15261;SDS011;7733;51.554;13.590;2023-05-17T09:43:59;4.60;;;2.30;;
15261;SDS011;7733;51.554;13.590;2023-05-17T09:46:27;5.03;;;2.60;;
15261;SDS011;7733;51.554;13.590;2023-05-17T09:49:00;6.13;;;2.63;;
15261;SDS011;7733;51.554;13.590;2023-05-17T09:54:06;6.67;;;2.43;;
15261;SDS011;7733;51.554;13.590;2023-05-17T09:56:32;8.20;;;6.30;;
15261;SDS011;7733;51.554;13.590;2023-05-17T09:59:02;19.73;;;15.17;;
15261;SDS011;7733;51.554;13.590;2023-05-17T10:01:35;4.97;;;2.30;;
15261;SDS011;7733;51.554;13.590;2023-05-17T10:04:07;6.17;;;4.00;;
15261;SDS011;7733;51.554;13.590;2023-05-17T10:06:35;4.57;;;3.40;;
15261;SDS011;7733;51.554;13.590;2023-05-17T10:09:09;6.53;;;2.80;;
15261;SDS011;7733;51.554;13.590;2023-05-17T10:11:38;5.10;;;2.90;;
15261;SDS011;7733;51.554;13.590;2023-05-17T10:14:10;5.43;;;2.77;;
15261;SDS011;7733;51.554;13.590;2023-05-17T10:16:46;5.83;;;2.60;;
15261;SDS011;7733;51.554;13.590;2023-05-17T10:19:13;5.37;;;2.90;;
15261;SDS011;7733;51.554;13.590;2023-05-17T10:21:40;4.27;;;2.50;;
15261;SDS011;7733;51.554;13.590;2023-05-17T10:24:07;7.87;;;2.60;;
15261;SDS011;7733;51.554;13.590;2023-05-17T10:26:36;5.07;;;2.27;;
15261;SDS011;7733;51.554;13.590;2023-05-17T10:29:02;6.53;;;2.53;;
15261;SDS011;7733;51.554;13.590;2023-05-17T10:31:32;6.63;;;2.50;;
15261;SDS011;7733;51.554;13.590;2023-05-17T10:34:02;4.87;;;2.70;;
15261;SDS011;7733;51.554;13.590;2023-05-17T10:36:30;4.87;;;2.43;;
15261;SDS011;7733;51.554;13.590;2023-05-17T10:38:58;6.90;;;2.60;;
15261;SDS011;7733;51.554;13.590;2023-05-17T10:41:29;5.47;;;2.17;;
15261;SDS011;7733;51.554;13.590;2023-05-17T10:43:58;5.60;;;3.83;;
15261;SDS011;7733;51.554;13.590;2023-05-17T10:46:28;4.03;;;2.27;;
15261;SDS011;7733;51.554;13.590;2023-05-17T10:48:56;5.77;;;2.60;;
15261;SDS011;7733;51.554;13.590;2023-05-17T10:51:34;5.87;;;2.30;;
15261;SDS011;7733;51.554;13.590;2023-05-17T10:56:47;4.27;;;2.67;;
15261;SDS011;7733;51.554;13.590;2023-05-17T10:59:22;3.33;;;2.00;;
15261;SDS011;7733;51.554;13.590;2023-05-17T11:02:01;5.33;;;2.30;;
15261;SDS011;7733;51.554;13.590;2023-05-17T11:09:41;10.10;;;2.70;;
15261;SDS011;7733;51.554;13.590;2023-05-17T11:12:16;4.17;;;2.00;;
15261;SDS011;7733;51.554;13.590;2023-05-17T11:15:09;4.47;;;2.37;;
15261;SDS011;7733;51.554;13.590;2023-05-17T11:22:56;3.77;;;2.17;;
15261;SDS011;7733;51.554;13.590;2023-05-17T11:25:33;2.47;;;2.23;;
15261;SDS011;7733;51.554;13.590;2023-05-17T11:28:06;4.60;;;2.40;;
15261;SDS011;7733;51.554;13.590;2023-05-17T11:30:41;6.53;;;2.27;;
15261;SDS011;7733;51.554;13.590;2023-05-17T11:33:15;4.30;;;2.30;;
15261;SDS011;7733;51.554;13.590;2023-05-17T11:35:41;2.93;;;1.73;;
15261;SDS011;7733;51.554;13.590;2023-05-17T11:38:18;2.77;;;1.80;;
15261;SDS011;7733;51.554;13.590;2023-05-17T11:40:47;6.20;;;2.00;;
15261;SDS011;7733;51.554;13.590;2023-05-17T11:43:23;6.23;;;2.10;;
15261;SDS011;7733;51.554;13.590;2023-05-17T11:45:56;4.87;;;2.57;;
15261;SDS011;7733;51.554;13.590;2023-05-17T11:48:28;4.20;;;2.20;;
15261;SDS011;7733;51.554;13.590;2023-05-17T11:50:55;3.93;;;1.90;;
15261;SDS011;7733;51.554;13.590;2023-05-17T11:53:21;6.27;;;2.30;;
15261;SDS011;7733;51.554;13.590;2023-05-17T11:55:49;4.67;;;1.93;;
15261;SDS011;7733;51.554;13.590;2023-05-17T11:58:17;3.67;;;2.17;;
15261;SDS011;7733;51.554;13.590;2023-05-17T12:00:51;3.43;;;1.90;;
15261;SDS011;7733;51.554;13.590;2023-05-17T12:03:22;4.60;;;2.37;;
15261;SDS011;7733;51.554;13.590;2023-05-17T12:08:37;3.63;;;2.07;;
15261;SDS011;7733;51.554;13.590;2023-05-17T12:11:09;3.93;;;2.10;;
15261;SDS011;7733;51.554;13.590;2023-05-17T12:13:38;2.30;;;2.10;;
15261;SDS011;7733;51.554;13.590;2023-05-17T12:16:08;3.87;;;2.13;;
15261;SDS011;7733;51.554;13.590;2023-05-17T12:18:43;5.37;;;2.40;;
15261;SDS011;7733;51.554;13.590;2023-05-17T12:21:14;5.47;;;1.87;;
15261;SDS011;7733;51.554;13.590;2023-05-17T12:23:42;4.10;;;2.10;;
15261;SDS011;7733;51.554;13.590;2023-05-17T12:26:14;4.57;;;1.80;;
15261;SDS011;7733;51.554;13.590;2023-05-17T12:28:43;2.07;;;1.87;;
15261;SDS011;7733;51.554;13.590;2023-05-17T12:31:17;6.50;;;1.77;;
15261;SDS011;7733;51.554;13.590;2023-05-17T12:33:50;2.57;;;1.90;;
15261;SDS011;7733;51.554;13.590;2023-05-17T12:36:16;3.20;;;1.90;;
15261;SDS011;7733;51.554;13.590;2023-05-17T12:38:43;4.67;;;1.63;;
15261;SDS011;7733;51.554;13.590;2023-05-17T12:41:11;3.77;;;2.27;;
15261;SDS011;7733;51.554;13.590;2023-05-17T12:43:39;5.63;;;2.37;;
15261;SDS011;7733;51.554;13.590;2023-05-17T12:46:10;6.30;;;2.37;;
15261;SDS011;7733;51.554;13.590;2023-05-17T12:48:39;5.13;;;2.00;;
15261;SDS011;7733;51.554;13.590;2023-05-17T12:51:07;6.27;;;1.70;;
15261;SDS011;7733;51.554;13.590;2023-05-17T12:56:23;4.63;;;2.33;;
15261;SDS011;7733;51.554;13.590;2023-05-17T13:01:37;4.70;;;2.27;;
15261;SDS011;7733;51.554;13.590;2023-05-17T13:04:07;2.80;;;1.73;;
15261;SDS011;7733;51.554;13.590;2023-05-17T13:09:17;5.03;;;2.00;;
15261;SDS011;7733;51.554;13.590;2023-05-17T13:11:51;5.37;;;2.10;;
15261;SDS011;7733;51.554;13.590;2023-05-17T13:17:25;4.53;;;2.20;;
15261;SDS011;7733;51.554;13.590;2023-05-17T13:20:05;5.70;;;2.17;;
15261;SDS011;7733;51.554;13.590;2023-05-17T13:22:32;5.13;;;2.43;;
15261;SDS011;7733;51.554;13.590;2023-05-17T13:24:58;4.13;;;2.30;;
15261;SDS011;7733;51.554;13.590;2023-05-17T13:27:23;4.63;;;2.00;;
15261;SDS011;7733;51.554;13.590;2023-05-17T13:29:49;4.80;;;2.40;;
15261;SDS011;7733;51.554;13.590;2023-05-17T13:32:15;7.90;;;2.70;;
15261;SDS011;7733;51.554;13.590;2023-05-17T13:34:40;4.03;;;2.17;;
15261;SDS011;7733;51.554;13.590;2023-05-17T13:37:06;3.73;;;2.30;;
15261;SDS011;7733;51.554;13.590;2023-05-17T13:39:32;4.67;;;3.57;;
15261;SDS011;7733;51.554;13.590;2023-05-17T13:41:58;5.93;;;2.40;;
15261;SDS011;7733;51.554;13.590;2023-05-17T13:44:24;8.20;;;3.07;;
15261;SDS011;7733;51.554;13.590;2023-05-17T13:46:50;11.93;;;3.00;;
15261;SDS011;7733;51.554;13.590;2023-05-17T13:49:16;4.03;;;2.30;;
15261;SDS011;7733;51.554;13.590;2023-05-17T13:51:42;2.67;;;2.43;;
15261;SDS011;7733;51.554;13.590;2023-05-17T13:54:08;3.63;;;2.00;;
15261;SDS011;7733;51.554;13.590;2023-05-17T13:56:37;4.77;;;2.30;;
15261;SDS011;7733;51.554;13.590;2023-05-17T13:59:03;4.70;;;2.00;;
15261;SDS011;7733;51.554;13.590;2023-05-17T14:01:28;4.50;;;2.33;;
15261;SDS011;7733;51.554;13.590;2023-05-17T14:03:54;7.07;;;3.27;;
15261;SDS011;7733;51.554;13.590;2023-05-17T14:06:21;6.83;;;2.60;;
15261;SDS011;7733;51.554;13.590;2023-05-17T14:08:47;3.70;;;2.47;;
15261;SDS011;7733;51.554;13.590;2023-05-17T14:11:13;5.13;;;2.20;;
15261;SDS011;7733;51.554;13.590;2023-05-17T14:13:39;5.37;;;1.87;;
15261;SDS011;7733;51.554;13.590;2023-05-17T14:16:06;3.93;;;2.37;;
15261;SDS011;7733;51.554;13.590;2023-05-17T14:18:32;5.37;;;2.53;;
15261;SDS011;7733;51.554;13.590;2023-05-17T14:20:57;3.43;;;2.03;;
15261;SDS011;7733;51.554;13.590;2023-05-17T14:23:24;5.83;;;2.00;;
15261;SDS011;7733;51.554;13.590;2023-05-17T14:25:50;5.77;;;1.77;;
15261;SDS011;7733;51.554;13.590;2023-05-17T14:28:16;3.93;;;1.90;;
15261;SDS011;7733;51.554;13.590;2023-05-17T14:30:42;5.10;;;2.30;;
15261;SDS011;7733;51.554;13.590;2023-05-17T14:33:08;4.37;;;2.20;;
15261;SDS011;7733;51.554;13.590;2023-05-17T14:35:34;6.00;;;2.53;;
15261;SDS011;7733;51.554;13.590;2023-05-17T14:38:00;2.67;;;1.83;;
15261;SDS011;7733;51.554;13.590;2023-05-17T14:40:26;4.27;;;2.33;;
15261;SDS011;7733;51.554;13.590;2023-05-17T14:42:52;2.90;;;2.23;;
15261;SDS011;7733;51.554;13.590;2023-05-17T14:45:19;3.53;;;2.00;;
15261;SDS011;7733;51.554;13.590;2023-05-17T14:47:44;4.20;;;2.10;;
15261;SDS011;7733;51.554;13.590;2023-05-17T14:50:10;4.40;;;1.97;;
15261;SDS011;7733;51.554;13.590;2023-05-17T14:52:36;3.23;;;2.23;;
15261;SDS011;7733;51.554;13.590;2023-05-17T14:55:02;3.90;;;2.10;;
15261;SDS011;7733;51.554;13.590;2023-05-17T14:57:28;4.63;;;2.53;;
15261;SDS011;7733;51.554;13.590;2023-05-17T14:59:55;4.20;;;1.87;;
15261;SDS011;7733;51.554;13.590;2023-05-17T15:02:21;4.60;;;1.97;;
15261;SDS011;7733;51.554;13.590;2023-05-17T15:04:47;5.20;;;1.80;;
15261;SDS011;7733;51.554;13.590;2023-05-17T15:07:13;6.53;;;3.00;;
15261;SDS011;7733;51.554;13.590;2023-05-17T15:09:39;3.90;;;3.23;;
15261;SDS011;7733;51.554;13.590;2023-05-17T15:12:07;3.70;;;2.13;;
15261;SDS011;7733;51.554;13.590;2023-05-17T15:14:37;5.47;;;1.90;;
15261;SDS011;7733;51.554;13.590;2023-05-17T15:17:04;4.63;;;2.20;;
15261;SDS011;7733;51.554;13.590;2023-05-17T15:19:30;5.20;;;2.40;;
15261;SDS011;7733;51.554;13.590;2023-05-17T15:21:57;4.80;;;2.20;;
15261;SDS011;7733;51.554;13.590;2023-05-17T15:24:23;6.37;;;2.53;;
15261;SDS011;7733;51.554;13.590;2023-05-17T15:26:48;4.77;;;2.43;;
15261;SDS011;7733;51.554;13.590;2023-05-17T15:29:14;4.50;;;2.60;;
15261;SDS011;7733;51.554;13.590;2023-05-17T15:31:40;5.57;;;2.27;;
15261;SDS011;7733;51.554;13.590;2023-05-17T15:34:06;5.00;;;2.13;;
15261;SDS011;7733;51.554;13.590;2023-05-17T15:36:32;5.07;;;2.30;;